Terminal Aerodrome Forecast
Issued by NWS Twin Cities, MN

Home | Current Version | Previous Version | Graphics & Text | Print | Product List | Glossary On
Versions: 1 2 3 4 5 6 7 8 9 10 11 12 13 14 15 16 17 18 19 20 21 22
000
FTUS43 KMPX 191800 AAA
TAFSTC
TAF AMD
KSTC 191837Z 1919/2018 18012KT 3SM BR BKN007 OVC012
     FM191930 20011KT P6SM BKN015
     FM192200 21010KT P6SM SCT025 BKN150
     FM200600 28008KT P6SM SKC
     FM201500 30010KT P6SM FEW250=

USA.gov is the U.S. government's official web portal to all federal, state and local government web resources and services.